createdAt,value
2018-05-14T00:00:29.774Z,998.27
2018-05-14T00:01:29.793Z,998.29
2018-05-14T00:02:29.823Z,998.3
2018-05-14T00:03:29.846Z,998.3
2018-05-14T00:04:29.869Z,998.29
2018-05-14T00:05:29.887Z,998.3
2018-05-14T00:06:29.917Z,998.3
2018-05-14T00:07:29.934Z,998.28
2018-05-14T00:08:29.963Z,998.26
2018-05-14T00:09:29.987Z,998.27
2018-05-14T00:10:30.005Z,998.29
2018-05-14T00:11:30.035Z,998.29
2018-05-14T00:12:30.058Z,998.27
2018-05-14T00:13:30.080Z,998.26
2018-05-14T00:14:30.105Z,998.26
2018-05-14T00:15:30.124Z,998.28
2018-05-14T00:16:30.150Z,998.24
2018-05-14T00:17:30.176Z,998.29
2018-05-14T00:18:30.193Z,998.28
2018-05-14T00:19:30.220Z,998.26
2018-05-14T00:20:30.240Z,998.28
2018-05-14T00:21:30.270Z,998.28
2018-05-14T00:22:30.290Z,998.3
2018-05-14T00:23:30.308Z,998.3
2018-05-14T00:24:30.332Z,998.28
2018-05-14T00:25:30.356Z,998.28
2018-05-14T00:26:30.379Z,998.27
2018-05-14T00:27:30.401Z,998.27
2018-05-14T00:28:30.431Z,998.29
2018-05-14T00:29:30.453Z,998.29
2018-05-14T00:30:30.477Z,998.32
2018-05-14T00:31:30.495Z,998.29
2018-05-14T00:32:30.519Z,998.26
2018-05-14T00:33:30.542Z,998.32
2018-05-14T00:34:30.569Z,998.29
2018-05-14T00:35:30.593Z,998.33
2018-05-14T00:36:30.617Z,998.29
2018-05-14T00:37:30.641Z,998.33
2018-05-14T00:38:30.658Z,998.33
2018-05-14T00:39:30.687Z,998.3
2018-05-14T00:40:30.711Z,998.3
2018-05-14T00:41:30.805Z,998.3
2018-05-14T00:42:30.751Z,998.34
2018-05-14T00:43:30.785Z,998.37
2018-05-14T00:44:30.797Z,998.36
2018-05-14T00:45:30.836Z,998.34
2018-05-14T00:46:30.849Z,998.36
2018-05-14T00:47:30.873Z,998.34
2018-05-14T00:48:30.890Z,998.34
2018-05-14T00:49:30.973Z,998.36
2018-05-14T00:50:30.942Z,998.35
2018-05-14T00:51:30.959Z,998.34
2018-05-14T00:52:30.987Z,998.4
2018-05-14T00:53:31.009Z,998.35
2018-05-14T00:54:31.029Z,998.33
2018-05-14T00:55:31.057Z,998.36
2018-05-14T00:56:31.074Z,998.33
2018-05-14T00:57:31.099Z,998.36
2018-05-14T00:58:31.125Z,998.36
2018-05-14T00:59:31.149Z,998.35
2018-05-14T01:00:31.166Z,998.33
2018-05-14T01:01:31.189Z,998.38
2018-05-14T01:02:31.217Z,998.35
2018-05-14T01:03:31.234Z,998.35
2018-05-14T01:04:31.263Z,998.32
2018-05-14T01:05:31.282Z,998.36
2018-05-14T01:06:31.363Z,998.36
2018-05-14T01:07:31.326Z,998.37
2018-05-14T01:08:31.349Z,998.36
2018-05-14T01:09:31.378Z,998.4
2018-05-14T01:10:31.400Z,998.37
2018-05-14T01:11:31.420Z,998.4
2018-05-14T01:12:31.441Z,998.38
2018-05-14T01:13:31.464Z,998.38
2018-05-14T01:14:31.486Z,998.4
2018-05-14T01:15:31.510Z,998.36
2018-05-14T01:16:31.532Z,998.37
2018-05-14T01:17:31.561Z,998.4
2018-05-14T01:18:31.578Z,998.34
2018-05-14T01:19:31.606Z,998.37
2018-05-14T01:20:31.623Z,998.34
2018-05-14T01:21:31.649Z,998.37
2018-05-14T01:22:31.675Z,998.39
2018-05-14T01:23:31.698Z,998.39
2018-05-14T01:24:31.723Z,998.35
2018-05-14T01:25:31.738Z,998.37
2018-05-14T01:26:31.766Z,998.38
2018-05-14T01:27:31.791Z,998.37
2018-05-14T01:28:31.811Z,998.38
2018-05-14T01:29:31.827Z,998.42
2018-05-14T01:30:31.857Z,998.37
2018-05-14T01:31:31.882Z,998.4
2018-05-14T01:32:31.900Z,998.37
2018-05-14T01:33:31.920Z,998.37
2018-05-14T01:34:31.947Z,998.41
2018-05-14T01:35:31.969Z,998.38
2018-05-14T01:36:31.991Z,998.39
2018-05-14T01:37:32.009Z,998.39
2018-05-14T01:38:32.036Z,998.41
2018-05-14T01:39:32.059Z,998.38
2018-05-14T01:40:32.085Z,998.33
2018-05-14T01:41:32.101Z,998.35
2018-05-14T01:42:32.128Z,998.32
2018-05-14T01:43:32.145Z,998.4
2018-05-14T01:44:32.172Z,998.38
2018-05-14T01:45:32.198Z,998.36
2018-05-14T01:46:32.221Z,998.32
2018-05-14T01:47:32.241Z,998.35
2018-05-14T01:48:32.258Z,998.33
2018-05-14T01:49:32.286Z,998.31
2018-05-14T01:50:32.316Z,998.33
2018-05-14T01:51:32.326Z,998.33
2018-05-14T01:52:32.349Z,998.32
2018-05-14T01:53:32.372Z,998.31
2018-05-14T01:54:32.397Z,998.3
2018-05-14T01:55:32.416Z,998.28
2018-05-14T01:56:32.442Z,998.3
2018-05-14T01:57:32.461Z,998.29
2018-05-14T01:58:32.487Z,998.29
2018-05-14T01:59:32.518Z,998.25
2018-05-14T02:00:32.531Z,998.28
2018-05-14T02:01:32.551Z,998.26
2018-05-14T02:02:32.580Z,998.25
2018-05-14T02:03:32.601Z,998.25
2018-05-14T02:04:32.619Z,998.23
2018-05-14T02:05:32.645Z,998.25
2018-05-14T02:06:32.668Z,998.23
2018-05-14T02:07:32.693Z,998.24
2018-05-14T02:08:32.716Z,998.24
2018-05-14T02:09:32.730Z,998.24
2018-05-14T02:10:32.753Z,998.23
2018-05-14T02:11:32.781Z,998.25
2018-05-14T02:12:32.797Z,998.28
2018-05-14T02:13:32.825Z,998.28
2018-05-14T02:14:32.843Z,998.25
2018-05-14T02:15:32.871Z,998.25
2018-05-14T02:16:32.887Z,998.24
2018-05-14T02:17:32.911Z,998.26
2018-05-14T02:18:32.933Z,998.26
2018-05-14T02:19:32.960Z,998.26
2018-05-14T02:20:32.977Z,998.25
2018-05-14T02:21:33.005Z,998.3
2018-05-14T02:22:33.028Z,998.28
2018-05-14T02:23:33.045Z,998.31
2018-05-14T02:24:33.070Z,998.3
2018-05-14T02:25:33.092Z,998.28
2018-05-14T02:26:33.112Z,998.28
2018-05-14T02:27:33.140Z,998.31
2018-05-14T02:28:33.160Z,998.27
2018-05-14T02:29:33.183Z,998.27
2018-05-14T02:30:33.204Z,998.27
2018-05-14T02:31:33.223Z,998.28
2018-05-14T02:32:33.245Z,998.26
2018-05-14T02:33:33.267Z,998.26
2018-05-14T02:34:33.288Z,998.29
2018-05-14T02:35:33.312Z,998.31
2018-05-14T02:36:33.335Z,998.28
2018-05-14T02:37:33.360Z,998.27
2018-05-14T02:38:33.383Z,998.27
2018-05-14T02:39:33.400Z,998.27
2018-05-14T02:40:33.426Z,998.28
2018-05-14T02:41:33.451Z,998.29
2018-05-14T02:42:33.469Z,998.27
2018-05-14T02:43:33.496Z,998.29
2018-05-14T02:44:33.511Z,998.3
2018-05-14T02:45:33.535Z,998.3
2018-05-14T02:46:33.557Z,998.33
2018-05-14T02:47:33.578Z,998.31
2018-05-14T02:48:33.606Z,998.32
2018-05-14T02:49:33.622Z,998.34
2018-05-14T02:50:33.730Z,998.32
2018-05-14T02:51:33.672Z,998.29
2018-05-14T02:52:33.693Z,998.35
2018-05-14T02:53:33.716Z,998.33
2018-05-14T02:54:33.732Z,998.34
2018-05-14T02:55:33.757Z,998.31
2018-05-14T02:56:33.776Z,998.34
2018-05-14T02:57:33.805Z,998.36
2018-05-14T02:58:33.825Z,998.34
2018-05-14T02:59:33.854Z,998.36
2018-05-14T03:00:33.864Z,998.34
2018-05-14T03:01:33.887Z,998.34
2018-05-14T03:02:33.910Z,998.36
2018-05-14T03:03:33.936Z,998.38
2018-05-14T03:04:33.953Z,998.34
2018-05-14T03:05:33.981Z,998.31
2018-05-14T03:06:34.003Z,998.32
2018-05-14T03:07:34.028Z,998.35
2018-05-14T03:08:34.041Z,998.35
2018-05-14T03:09:34.066Z,998.34
2018-05-14T03:10:34.130Z,998.36
2018-05-14T03:11:34.106Z,998.33
2018-05-14T03:12:34.134Z,998.38
2018-05-14T03:13:34.156Z,998.37
2018-05-14T03:14:34.173Z,998.41
2018-05-14T03:15:34.200Z,998.38
2018-05-14T03:16:34.222Z,998.41
2018-05-14T03:17:34.247Z,998.46
2018-05-14T03:18:34.265Z,998.52
2018-05-14T03:19:34.286Z,998.5
2018-05-14T03:20:34.304Z,998.53
2018-05-14T03:21:34.326Z,998.51
2018-05-14T03:22:34.353Z,998.53
2018-05-14T03:23:34.376Z,998.5
2018-05-14T03:24:34.392Z,998.51
2018-05-14T03:25:34.420Z,998.55
2018-05-14T03:26:34.441Z,998.51
2018-05-14T03:27:34.459Z,998.52
2018-05-14T03:28:34.484Z,998.48
2018-05-14T03:29:34.510Z,998.54
2018-05-14T03:30:34.529Z,998.52
2018-05-14T03:31:34.553Z,998.5
2018-05-14T03:32:34.573Z,998.52
2018-05-14T03:33:34.589Z,998.47
2018-05-14T03:34:34.612Z,998.49
2018-05-14T03:35:34.639Z,998.51
2018-05-14T03:36:34.655Z,998.48
2018-05-14T03:37:34.682Z,998.5
2018-05-14T03:38:34.704Z,998.47
2018-05-14T03:39:34.721Z,998.49
2018-05-14T03:40:34.741Z,998.48
2018-05-14T03:41:34.970Z,998.48
2018-05-14T03:42:34.786Z,998.49
2018-05-14T03:43:34.807Z,998.49
2018-05-14T03:44:34.829Z,998.52
2018-05-14T03:45:34.856Z,998.52
2018-05-14T03:46:34.873Z,998.53
2018-05-14T03:47:34.900Z,998.54
2018-05-14T03:48:34.923Z,998.55
2018-05-14T03:49:34.943Z,998.56
2018-05-14T03:50:34.961Z,998.57
2018-05-14T03:51:34.983Z,998.58
2018-05-14T03:52:35.011Z,998.61
2018-05-14T03:53:35.035Z,998.61
2018-05-14T03:54:35.054Z,998.61
2018-05-14T03:55:35.075Z,998.66
2018-05-14T03:56:35.092Z,998.64
2018-05-14T03:57:35.117Z,998.65
2018-05-14T03:58:35.140Z,998.64
2018-05-14T03:59:35.163Z,998.68
2018-05-14T04:00:35.183Z,998.64
2018-05-14T04:01:35.215Z,998.63
2018-05-14T04:02:35.228Z,998.65
2018-05-14T04:03:35.244Z,998.64
2018-05-14T04:04:35.282Z,998.67
2018-05-14T04:05:35.295Z,998.67
2018-05-14T04:06:35.313Z,998.68
2018-05-14T04:07:35.331Z,998.69
2018-05-14T04:08:35.352Z,998.64
2018-05-14T04:09:35.374Z,998.69
2018-05-14T04:10:35.400Z,998.69
2018-05-14T04:11:35.418Z,998.63
2018-05-14T04:12:35.444Z,998.66
2018-05-14T04:13:35.469Z,998.67
2018-05-14T04:14:35.488Z,998.69
2018-05-14T04:15:35.509Z,998.7
2018-05-14T04:16:35.538Z,998.67
2018-05-14T04:17:35.548Z,998.73
2018-05-14T04:18:35.575Z,998.72
2018-05-14T04:19:35.674Z,998.69
2018-05-14T04:20:35.611Z,998.7
2018-05-14T04:21:35.633Z,998.73
2018-05-14T04:22:35.659Z,998.73
2018-05-14T04:23:35.683Z,998.75
2018-05-14T04:24:35.702Z,998.77
2018-05-14T04:25:35.720Z,998.8
2018-05-14T04:26:35.750Z,998.77
2018-05-14T04:27:35.764Z,998.75
2018-05-14T04:28:35.790Z,998.77
2018-05-14T04:29:35.807Z,998.78
2018-05-14T04:30:35.828Z,998.78
2018-05-14T04:31:35.850Z,998.78
2018-05-14T04:32:35.873Z,998.81
2018-05-14T04:33:35.904Z,998.78
2018-05-14T04:34:35.919Z,998.77
2018-05-14T04:35:35.936Z,998.8
2018-05-14T04:36:35.957Z,998.8
2018-05-14T04:37:35.980Z,998.83
2018-05-14T04:38:36.005Z,998.85
2018-05-14T04:39:36.024Z,998.82
2018-05-14T04:40:36.049Z,998.81
2018-05-14T04:41:36.071Z,998.82
2018-05-14T04:42:36.089Z,998.83
2018-05-14T04:43:36.117Z,998.81
2018-05-14T04:44:36.135Z,998.85
2018-05-14T04:45:36.158Z,998.86
2018-05-14T04:46:36.178Z,998.86
2018-05-14T04:47:36.199Z,998.9
2018-05-14T04:48:36.218Z,998.87
2018-05-14T04:49:36.246Z,998.87
2018-05-14T04:50:36.260Z,998.83
2018-05-14T04:51:36.290Z,998.86
2018-05-14T04:52:36.303Z,998.87
2018-05-14T04:53:36.327Z,998.82
2018-05-14T04:54:36.351Z,998.88
2018-05-14T04:55:36.372Z,998.92
2018-05-14T04:56:36.400Z,998.95
2018-05-14T04:57:36.416Z,998.92
2018-05-14T04:58:36.440Z,998.94
2018-05-14T04:59:36.453Z,998.89
2018-05-14T05:00:36.480Z,998.91
2018-05-14T05:01:36.504Z,998.88
2018-05-14T05:02:36.522Z,998.87
2018-05-14T05:03:36.544Z,998.88
2018-05-14T05:04:36.564Z,998.9
2018-05-14T05:05:36.587Z,998.87
2018-05-14T05:06:36.607Z,998.88
2018-05-14T05:07:36.624Z,998.87
2018-05-14T05:08:36.650Z,998.85
2018-05-14T05:09:36.673Z,998.82
2018-05-14T05:10:36.689Z,998.81
2018-05-14T05:11:36.717Z,998.8
2018-05-14T05:12:36.731Z,998.78
2018-05-14T05:13:36.757Z,998.82
2018-05-14T05:14:36.775Z,998.84
2018-05-14T05:15:36.801Z,998.85
2018-05-14T05:16:37.036Z,998.87
2018-05-14T05:17:36.843Z,998.86
2018-05-14T05:18:36.860Z,998.84
2018-05-14T05:19:36.883Z,998.84
2018-05-14T05:20:36.902Z,998.88
2018-05-14T05:21:36.929Z,998.89
2018-05-14T05:22:36.946Z,998.88
2018-05-14T05:23:36.968Z,998.88
2018-05-14T05:24:36.989Z,998.93
2018-05-14T05:25:37.017Z,998.91
2018-05-14T05:26:37.037Z,998.96
2018-05-14T05:27:37.054Z,998.94
2018-05-14T05:28:37.080Z,998.95
2018-05-14T05:29:37.102Z,998.94
2018-05-14T05:30:37.123Z,998.96
2018-05-14T05:31:37.143Z,998.92
2018-05-14T05:32:37.368Z,998.93
2018-05-14T05:33:37.183Z,998.86
2018-05-14T05:34:37.341Z,998.89
2018-05-14T05:35:37.229Z,998.86
2018-05-14T05:36:37.251Z,998.89
2018-05-14T05:37:37.311Z,998.91
2018-05-14T05:38:37.293Z,998.99
2018-05-14T05:39:37.317Z,998.98
2018-05-14T05:40:37.337Z,998.97
2018-05-14T05:41:37.352Z,998.97
2018-05-14T05:42:37.381Z,998.95
2018-05-14T05:43:37.401Z,998.96
2018-05-14T05:44:37.421Z,998.99
2018-05-14T05:45:37.438Z,998.97
2018-05-14T05:46:37.460Z,998.95
2018-05-14T05:47:37.481Z,998.93
2018-05-14T05:48:37.502Z,998.95
2018-05-14T05:49:37.529Z,999.02
2018-05-14T05:50:37.550Z,999.02
2018-05-14T05:51:37.567Z,999.08
2018-05-14T05:52:37.587Z,999.07
2018-05-14T05:53:37.611Z,999.07
2018-05-14T05:54:37.630Z,999.07
2018-05-14T05:55:37.657Z,999.07
2018-05-14T05:56:37.672Z,999.08
2018-05-14T05:57:37.700Z,999.09
2018-05-14T05:58:37.722Z,999.15
2018-05-14T05:59:37.737Z,999.13
2018-05-14T06:00:37.767Z,999.09
2018-05-14T06:01:37.781Z,999.08
2018-05-14T06:02:37.806Z,999.1
2018-05-14T06:03:37.822Z,999.1
2018-05-14T06:04:37.849Z,999.1
2018-05-14T06:05:37.867Z,999.1
2018-05-14T06:06:37.897Z,999.07
2018-05-14T06:07:37.909Z,999.05
2018-05-14T06:08:37.931Z,999.04
2018-05-14T06:09:37.956Z,999.06
2018-05-14T06:10:37.980Z,999.07
2018-05-14T06:11:37.994Z,999.05
2018-05-14T06:12:38.017Z,999.03
2018-05-14T06:13:38.047Z,999.05
2018-05-14T06:14:38.062Z,999.04
2018-05-14T06:15:38.079Z,999.02
2018-05-14T06:16:38.106Z,999
2018-05-14T06:17:38.133Z,999
2018-05-14T06:18:38.144Z,998.96
2018-05-14T06:19:38.165Z,999.01
2018-05-14T06:20:38.188Z,999.03
2018-05-14T06:21:38.211Z,999.04
2018-05-14T06:22:38.230Z,999.03
2018-05-14T06:23:38.257Z,999.03
2018-05-14T06:24:38.272Z,999.04
2018-05-14T06:25:38.295Z,999
2018-05-14T06:26:38.319Z,999.02
2018-05-14T06:27:38.342Z,999.07
2018-05-14T06:28:38.363Z,999.04
2018-05-14T06:29:38.384Z,999.06
2018-05-14T06:30:38.407Z,999.05
2018-05-14T06:31:38.428Z,999.06
2018-05-14T06:32:38.449Z,999.1
2018-05-14T06:33:38.466Z,999.03
2018-05-14T06:34:38.493Z,999.11
2018-05-14T06:35:38.665Z,998.99
2018-05-14T06:36:38.535Z,999.06
2018-05-14T06:37:38.552Z,999.09
2018-05-14T06:38:38.582Z,999.08
2018-05-14T06:39:38.595Z,999.09
2018-05-14T06:40:38.621Z,999.1
2018-05-14T06:41:38.643Z,999.15
2018-05-14T06:42:38.661Z,999.16
2018-05-14T06:43:38.681Z,999.15
2018-05-14T06:44:38.706Z,999.16
2018-05-14T06:45:38.725Z,999.18
2018-05-14T06:46:38.747Z,999.17
2018-05-14T06:47:38.773Z,999.18
2018-05-14T06:48:38.791Z,999.22
2018-05-14T06:49:38.816Z,999.21
2018-05-14T06:50:38.835Z,999.23
2018-05-14T06:51:38.855Z,999.2
2018-05-14T06:52:38.876Z,999.22
2018-05-14T06:53:38.898Z,999.2
2018-05-14T06:54:38.924Z,999.21
2018-05-14T06:55:38.942Z,999.18
2018-05-14T06:56:38.976Z,999.22
2018-05-14T06:57:38.990Z,999.21
2018-05-14T06:58:39.010Z,999.25
2018-05-14T06:59:39.035Z,999.31
2018-05-14T07:00:39.052Z,999.27
2018-05-14T07:01:39.078Z,999.26
2018-05-14T07:02:39.108Z,999.31
2018-05-14T07:03:39.122Z,999.32
2018-05-14T07:04:39.144Z,999.31
2018-05-14T07:05:39.164Z,999.31
2018-05-14T07:06:39.187Z,999.35
2018-05-14T07:07:39.206Z,999.32
2018-05-14T07:08:39.226Z,999.33
2018-05-14T07:09:39.247Z,999.33
2018-05-14T07:10:39.270Z,999.34
2018-05-14T07:11:39.294Z,999.38
2018-05-14T07:12:39.319Z,999.34
2018-05-14T07:13:39.341Z,999.38
2018-05-14T07:14:39.359Z,999.4
2018-05-14T07:15:39.386Z,999.36
2018-05-14T07:16:39.405Z,999.35
2018-05-14T07:17:39.428Z,999.36
2018-05-14T07:18:39.445Z,999.37
2018-05-14T07:19:39.473Z,999.4
2018-05-14T07:20:39.499Z,999.41
2018-05-14T07:21:39.512Z,999.41
2018-05-14T07:22:39.537Z,999.46
2018-05-14T07:23:39.560Z,999.43
2018-05-14T07:24:39.580Z,999.47
2018-05-14T07:25:39.606Z,999.47
2018-05-14T07:26:39.629Z,999.44
2018-05-14T07:27:39.652Z,999.5
2018-05-14T07:28:39.666Z,999.44
2018-05-14T07:29:39.695Z,999.49
2018-05-14T07:30:39.710Z,999.47
2018-05-14T07:31:39.738Z,999.49
2018-05-14T07:32:39.760Z,999.51
2018-05-14T07:33:39.778Z,999.5
2018-05-14T07:34:39.805Z,999.51
2018-05-14T07:35:39.829Z,999.59
2018-05-14T07:36:39.852Z,999.58
2018-05-14T07:37:39.870Z,999.63
2018-05-14T07:38:39.896Z,999.56
2018-05-14T07:39:40.148Z,999.62
2018-05-14T07:40:40.065Z,999.66
2018-05-14T07:41:40.066Z,999.61
2018-05-14T07:42:40.147Z,999.61
2018-05-14T07:43:40.068Z,999.61
2018-05-14T07:44:40.121Z,999.59
2018-05-14T07:45:40.069Z,999.6
2018-05-14T07:46:40.077Z,999.59
2018-05-14T07:47:40.105Z,999.56
2018-05-14T07:48:40.114Z,999.56
2018-05-14T07:49:40.143Z,999.63
2018-05-14T07:50:40.160Z,999.57
2018-05-14T07:52:40.209Z,999.6
2018-05-14T07:53:40.228Z,999.62
2018-05-14T07:54:40.258Z,999.6
2018-05-14T07:55:40.279Z,999.61
2018-05-14T07:56:40.301Z,999.64
2018-05-14T07:57:40.319Z,999.67
2018-05-14T07:58:40.348Z,999.64
2018-05-14T07:59:40.373Z,999.64
2018-05-14T08:00:40.391Z,999.61
2018-05-14T08:01:40.409Z,999.62
2018-05-14T08:02:40.440Z,999.6
2018-05-14T08:03:40.455Z,999.64
2018-05-14T08:04:40.483Z,999.63
2018-05-14T08:05:40.523Z,999.63
2018-05-14T08:06:40.532Z,999.67
2018-05-14T08:07:40.554Z,999.63
2018-05-14T08:08:40.578Z,999.62
2018-05-14T08:09:40.596Z,999.65
2018-05-14T08:10:40.620Z,999.7
2018-05-14T08:11:40.669Z,999.66
2018-05-14T08:12:40.676Z,999.66
2018-05-14T08:13:40.693Z,999.65
2018-05-14T08:14:40.716Z,999.61
2018-05-14T08:15:40.741Z,999.7
2018-05-14T08:16:40.764Z,999.66
2018-05-14T08:17:40.786Z,999.62
2018-05-14T08:18:40.811Z,999.64
2018-05-14T08:19:40.830Z,999.61
2018-05-14T08:20:40.859Z,999.64
2018-05-14T08:21:40.880Z,999.66
2018-05-14T08:22:40.901Z,999.65
2018-05-14T08:23:40.931Z,999.61
2018-05-14T08:24:40.949Z,999.62
2018-05-14T08:25:40.973Z,999.62
2018-05-14T08:26:41.000Z,999.65
2018-05-14T08:27:41.022Z,999.65
2018-05-14T08:28:41.049Z,999.65
2018-05-14T08:29:41.120Z,999.66
2018-05-14T08:30:41.091Z,999.64
2018-05-14T08:31:41.117Z,999.67
2018-05-14T08:32:41.154Z,999.67
2018-05-14T08:33:41.165Z,999.68
2018-05-14T08:34:41.193Z,999.67
2018-05-14T08:35:41.220Z,999.7
2018-05-14T08:36:41.241Z,999.66
2018-05-14T08:37:41.269Z,999.67
2018-05-14T08:38:41.290Z,999.68
2018-05-14T08:39:41.315Z,999.7
2018-05-14T08:40:41.339Z,999.7
2018-05-14T08:41:41.364Z,999.69
2018-05-14T08:42:41.400Z,999.68
2018-05-14T08:43:41.408Z,999.74
2018-05-14T08:44:41.436Z,999.73
2018-05-14T08:45:41.465Z,999.72
2018-05-14T08:46:41.481Z,999.69
2018-05-14T08:47:41.506Z,999.72
2018-05-14T08:48:41.530Z,999.72
2018-05-14T08:49:41.563Z,999.74
2018-05-14T08:50:41.586Z,999.75
2018-05-14T08:51:41.604Z,999.71
2018-05-14T08:52:41.629Z,999.76
2018-05-14T08:53:41.659Z,999.69
2018-05-14T08:54:41.688Z,999.66
2018-05-14T08:55:41.703Z,999.75
2018-05-14T08:56:41.732Z,999.7
2018-05-14T08:57:41.805Z,999.69
2018-05-14T08:58:41.778Z,999.63
2018-05-14T08:59:41.803Z,999.66
2018-05-14T09:00:41.906Z,999.64
2018-05-14T09:01:41.854Z,999.66
2018-05-14T09:02:41.883Z,999.66
2018-05-14T09:03:41.904Z,999.67
2018-05-14T09:04:41.934Z,999.65
2018-05-14T09:05:41.962Z,999.69
2018-05-14T09:06:41.981Z,999.65
2018-05-14T09:07:42.011Z,999.67
2018-05-14T09:08:42.057Z,999.64
2018-05-14T09:09:42.061Z,999.65
2018-05-14T09:10:42.088Z,999.66
2018-05-14T09:11:42.108Z,999.67
2018-05-14T09:12:42.139Z,999.64
2018-05-14T09:13:42.161Z,999.63
2018-05-14T09:14:42.185Z,999.68
2018-05-14T09:15:42.217Z,999.67
2018-05-14T09:16:42.245Z,999.64
2018-05-14T09:17:42.263Z,999.66
2018-05-14T09:18:42.293Z,999.68
2018-05-14T09:19:42.331Z,999.65
2018-05-14T09:20:42.347Z,999.62
2018-05-14T09:21:42.366Z,999.65
2018-05-14T09:22:42.393Z,999.63
2018-05-14T09:23:42.420Z,999.61
2018-05-14T09:24:42.450Z,999.66
2018-05-14T09:25:42.471Z,999.66
2018-05-14T09:26:42.499Z,999.66
2018-05-14T09:27:42.528Z,999.66
2018-05-14T09:28:42.550Z,999.61
2018-05-14T09:29:42.580Z,999.66
2018-05-14T09:30:42.605Z,999.63
2018-05-14T09:31:42.635Z,999.73
2018-05-14T09:32:42.661Z,999.64
2018-05-14T09:33:42.682Z,999.71
2018-05-14T09:34:42.715Z,999.73
2018-05-14T09:35:42.742Z,999.75
2018-05-14T09:36:42.773Z,999.7
2018-05-14T09:37:42.795Z,999.66
2018-05-14T09:38:42.821Z,999.7
2018-05-14T09:39:42.844Z,999.66
2018-05-14T09:40:42.875Z,999.68
2018-05-14T09:41:42.897Z,999.71
2018-05-14T09:42:42.923Z,999.74
2018-05-14T09:43:42.955Z,999.75
2018-05-14T09:44:42.985Z,999.77
2018-05-14T09:45:43.012Z,999.73
2018-05-14T09:46:43.036Z,999.71
2018-05-14T09:47:43.061Z,999.74
2018-05-14T09:48:43.089Z,999.71
2018-05-14T09:51:02.945Z,999.68
2018-05-14T09:52:02.972Z,999.73
2018-05-14T09:53:03.169Z,999.74
2018-05-14T09:54:03.025Z,999.73
2018-05-14T09:55:03.053Z,999.68
2018-05-14T09:56:03.081Z,999.74
2018-05-14T09:57:03.109Z,999.77
2018-05-14T09:58:03.191Z,999.79
2018-05-14T09:59:03.163Z,999.78
2018-05-14T10:00:03.191Z,999.73
2018-05-14T10:01:03.220Z,999.69
2018-05-14T10:02:03.253Z,999.71
2018-05-14T10:03:03.282Z,999.71
2018-05-14T10:04:03.308Z,999.72
2018-05-14T10:05:03.341Z,999.74
2018-05-14T10:06:03.359Z,999.73
2018-05-14T10:07:03.393Z,999.72
2018-05-14T10:08:03.425Z,999.83
2018-05-14T10:09:03.449Z,999.79
2018-05-14T10:10:03.473Z,999.84
2018-05-14T10:11:03.505Z,999.79
2018-05-14T10:12:03.535Z,999.83
2018-05-14T10:13:03.598Z,999.84
2018-05-14T10:14:03.587Z,999.84
2018-05-14T10:15:03.615Z,999.81
2018-05-14T10:16:03.644Z,999.82
2018-05-14T10:17:03.851Z,999.76
2018-05-14T10:18:03.702Z,999.96
2018-05-14T10:19:03.729Z,999.88
2018-05-14T10:20:03.763Z,999.89
2018-05-14T10:21:03.795Z,999.87
2018-05-14T10:22:03.820Z,999.82
2018-05-14T10:23:03.850Z,999.89
2018-05-14T10:24:03.877Z,999.81
2018-05-14T10:25:03.910Z,999.94
2018-05-14T10:26:03.936Z,999.9
2018-05-14T10:27:03.968Z,999.85
2018-05-14T10:28:03.992Z,999.89
2018-05-14T10:29:04.026Z,999.89
2018-05-14T10:30:04.048Z,999.91
2018-05-14T10:31:04.075Z,999.93
2018-05-14T10:32:04.122Z,999.94
2018-05-14T10:33:04.139Z,999.9
2018-05-14T10:34:04.168Z,999.95
2018-05-14T10:35:04.192Z,999.93
2018-05-14T10:36:04.226Z,999.87
2018-05-14T10:37:04.255Z,999.94
2018-05-14T10:38:04.285Z,999.93
2018-05-14T10:39:04.315Z,999.99
2018-05-14T10:40:04.345Z,999.97
2018-05-14T10:41:04.375Z,999.91
2018-05-14T10:42:04.403Z,999.93
2018-05-14T10:43:04.433Z,999.88
2018-05-14T10:44:04.461Z,999.9
2018-05-14T10:45:04.493Z,999.94
2018-05-14T10:46:04.526Z,999.97
2018-05-14T10:47:04.551Z,999.92
2018-05-14T10:48:04.582Z,999.94
2018-05-14T10:49:04.612Z,999.95
2018-05-14T10:50:04.640Z,999.97
2018-05-14T10:51:04.668Z,999.94
2018-05-14T10:52:04.702Z,999.91
2018-05-14T10:53:04.727Z,999.92
2018-05-14T10:54:04.761Z,999.94
2018-05-14T10:55:04.792Z,999.98
2018-05-14T10:56:04.821Z,999.95
2018-05-14T10:57:04.851Z,999.95
2018-05-14T10:58:04.883Z,999.94
2018-05-14T10:59:04.912Z,999.91
2018-05-14T11:00:04.943Z,999.89
2018-05-14T11:01:04.971Z,999.95
2018-05-14T11:02:05.005Z,999.96
2018-05-14T11:03:05.031Z,999.94
2018-05-14T11:04:05.226Z,1000
2018-05-14T11:05:05.095Z,1000.06
2018-05-14T11:06:05.124Z,999.98
2018-05-14T11:07:05.149Z,1000.09
2018-05-14T11:08:05.179Z,1000.02
2018-05-14T11:09:05.210Z,1000.08
2018-05-14T11:10:05.239Z,1000.04
2018-05-14T11:11:05.274Z,1000.03
2018-05-14T11:12:05.302Z,1000.03
2018-05-14T11:13:05.339Z,1000.04
2018-05-14T11:14:05.367Z,999.98
2018-05-14T11:15:05.400Z,1000.02
2018-05-14T11:16:05.423Z,1000
2018-05-14T11:17:05.455Z,999.93
2018-05-14T11:18:05.493Z,999.9
2018-05-14T11:19:05.520Z,999.91
2018-05-14T11:20:05.552Z,999.93
2018-05-14T11:21:05.579Z,999.97
2018-05-14T11:22:05.612Z,999.96
2018-05-14T11:23:05.643Z,1000.02
2018-05-14T11:24:05.681Z,999.94
2018-05-14T11:25:05.701Z,999.99
2018-05-14T11:26:05.743Z,999.94
2018-05-14T11:27:05.768Z,1000.03
2018-05-14T11:28:05.794Z,999.99
2018-05-14T11:29:05.825Z,1000.03
2018-05-14T11:30:05.865Z,1000.06
2018-05-14T11:31:05.889Z,1000.05
2018-05-14T11:32:05.919Z,1000.06
2018-05-14T11:33:05.955Z,1000.15
2018-05-14T11:34:05.987Z,1000.06
2018-05-14T11:35:06.020Z,1000.09
2018-05-14T11:36:06.044Z,999.95
2018-05-14T11:37:06.077Z,1000.06
2018-05-14T11:38:06.108Z,999.95
2018-05-14T11:39:06.151Z,1000.13
2018-05-14T11:40:06.168Z,1000.13
2018-05-14T11:41:06.206Z,1000.17
2018-05-14T11:42:06.245Z,1000.07
2018-05-14T11:43:06.268Z,1000.06
2018-05-14T11:44:06.294Z,1000.09
2018-05-14T11:45:06.330Z,1000.09
2018-05-14T11:46:06.363Z,1000.04
2018-05-14T11:47:06.395Z,1000.02
2018-05-14T11:48:06.425Z,1000.01
2018-05-14T11:49:06.453Z,1000.07
2018-05-14T11:50:06.490Z,1000.01
2018-05-14T11:51:06.515Z,1000.01
2018-05-14T11:52:06.547Z,1000.02
2018-05-14T11:53:06.585Z,1000.07
2018-05-14T11:54:06.615Z,999.97
2018-05-14T11:55:06.647Z,999.87
2018-05-14T11:56:06.678Z,1000.01
2018-05-14T11:57:06.711Z,1000
2018-05-14T11:58:06.743Z,1000.16
2018-05-14T11:59:06.774Z,1000.07
2018-05-14T12:00:06.801Z,1000.04
2018-05-14T12:01:06.833Z,999.98
2018-05-14T12:02:06.864Z,999.94
2018-05-14T12:03:06.913Z,999.96
2018-05-14T12:04:06.929Z,1000.04
2018-05-14T12:05:06.970Z,1000.04
2018-05-14T12:06:07.035Z,999.96
2018-05-14T12:07:07.030Z,1000.02
2018-05-14T12:08:07.059Z,999.9
2018-05-14T12:09:07.094Z,1000.03
2018-05-14T12:10:07.173Z,1000.04
2018-05-14T12:11:07.158Z,1000.05
2018-05-14T12:12:07.236Z,999.99
2018-05-14T12:13:07.217Z,1000.04
2018-05-14T12:14:07.253Z,999.99
2018-05-14T12:15:07.282Z,999.97
2018-05-14T12:16:07.446Z,999.99
2018-05-14T12:17:07.351Z,999.92
2018-05-14T12:18:07.437Z,999.96
2018-05-14T12:19:07.416Z,999.94
2018-05-14T12:20:07.443Z,999.93
2018-05-14T12:21:07.475Z,999.99
2018-05-14T12:22:07.507Z,999.98
2018-05-14T12:23:07.540Z,999.96
2018-05-14T12:24:07.577Z,999.94
2018-05-14T12:25:07.612Z,999.88
2018-05-14T12:26:07.642Z,999.9
2018-05-14T12:27:07.669Z,999.99
2018-05-14T12:28:07.707Z,999.94
2018-05-14T12:29:07.735Z,999.88
2018-05-14T12:30:07.776Z,999.9
2018-05-14T12:31:07.799Z,999.94
2018-05-14T12:32:07.970Z,999.93